createdAt,value
2023-11-01T18:29:10.294Z,7.00
2023-11-01T18:31:45.168Z,6.28
2023-11-01T18:34:23.761Z,5.78
2023-11-01T18:36:56.792Z,6.05
2023-11-01T18:39:30.712Z,6.22
2023-11-01T18:42:03.252Z,6.75
2023-11-01T18:44:44.277Z,6.33
2023-11-01T18:47:18.154Z,6.00
2023-11-01T18:50:04.136Z,5.78
2023-11-01T18:52:36.757Z,6.85
2023-11-01T18:57:54.125Z,11.25
2023-11-01T19:00:29.861Z,6.65
2023-11-01T19:03:05.679Z,6.78
2023-11-01T19:05:40.946Z,6.00
2023-11-01T19:08:15.362Z,6.62
2023-11-01T19:10:51.122Z,6.40
2023-11-01T19:13:24.132Z,6.22
2023-11-01T19:16:07.248Z,6.42
2023-11-01T19:18:40.013Z,6.40
2023-11-01T19:21:13.573Z,6.72
2023-11-01T19:23:47.527Z,6.25
2023-11-01T19:26:26.791Z,6.00
2023-11-01T19:28:59.196Z,5.67
2023-11-01T19:31:31.845Z,5.35
2023-11-01T19:34:05.258Z,6.03
2023-11-01T19:36:39.720Z,6.33
2023-11-01T19:41:47.076Z,5.70
2023-11-01T19:44:20.286Z,5.40
2023-11-01T19:49:27.230Z,6.40
2023-11-01T19:51:59.610Z,6.50
2023-11-01T19:54:32.682Z,5.47
2023-11-01T19:59:41.255Z,6.70
2023-11-01T20:02:14.258Z,6.35
2023-11-01T20:04:50.125Z,6.20
2023-11-01T20:07:22.799Z,5.60
2023-11-01T20:09:57.105Z,5.67
2023-11-01T20:12:30.996Z,6.20
2023-11-01T20:15:05.644Z,6.03
2023-11-01T20:20:11.871Z,6.22
2023-11-01T20:22:44.980Z,6.65
2023-11-01T20:25:19.579Z,5.90
2023-11-01T20:27:53.493Z,6.17
2023-11-01T20:30:28.189Z,5.87
2023-11-01T20:35:43.590Z,5.90
2023-11-01T20:38:16.429Z,5.65
2023-11-01T20:40:49.537Z,5.80
2023-11-01T20:43:22.416Z,5.78
2023-11-01T20:45:56.487Z,6.55
2023-11-01T20:48:28.999Z,6.35
2023-11-01T20:51:04.902Z,6.28
2023-11-01T20:53:38.020Z,6.28
2023-11-01T20:56:13.163Z,6.22
2023-11-01T20:58:46.542Z,6.17
2023-11-01T21:01:21.431Z,6.08
2023-11-01T21:03:53.981Z,6.30
2023-11-01T21:06:28.513Z,6.30
2023-11-01T21:09:01.038Z,5.15
2023-11-01T21:11:34.451Z,5.70
2023-11-01T21:14:06.840Z,5.08
2023-11-01T21:16:43.120Z,6.28
2023-11-01T21:19:16.187Z,5.28
2023-11-01T21:24:24.631Z,5.12
2023-11-01T21:26:57.903Z,5.15
2023-11-01T21:29:31.544Z,4.78
2023-11-01T21:32:04.085Z,4.90
2023-11-01T21:34:37.423Z,5.30
2023-11-01T21:37:10.520Z,5.12
2023-11-01T21:39:44.426Z,5.22
2023-11-01T21:42:17.093Z,4.60
2023-11-01T21:44:49.691Z,4.22
2023-11-01T21:47:40.337Z,4.53
2023-11-01T21:50:20.636Z,4.37
2023-11-01T21:52:53.934Z,4.85
2023-11-01T21:56:17.360Z,3.80
2023-11-01T21:58:51.389Z,4.05
2023-11-01T22:01:24.524Z,4.10
2023-11-01T22:06:32.497Z,4.25
2023-11-01T22:09:14.953Z,4.03
2023-11-01T22:11:51.076Z,3.87
2023-11-01T22:14:30.087Z,3.98
2023-11-01T22:17:04.807Z,3.70
2023-11-01T22:19:44.661Z,4.17
2023-11-01T22:22:46.042Z,3.98
2023-11-01T22:25:30.867Z,3.47
2023-11-01T22:28:07.507Z,3.35
2023-11-01T22:30:40.446Z,3.62
2023-11-01T22:33:17.750Z,3.85
2023-11-01T22:35:50.728Z,3.85
2023-11-01T22:38:24.701Z,3.50
2023-11-01T22:40:57.228Z,3.47
2023-11-01T22:43:29.614Z,3.35
2023-11-01T22:46:03.419Z,3.60
2023-11-01T22:48:36.289Z,3.83
2023-11-01T22:51:09.086Z,3.37
2023-11-01T22:53:42.958Z,3.65
2023-11-01T22:56:16.819Z,3.00
2023-11-01T22:58:49.457Z,3.08
2023-11-01T23:01:22.159Z,3.30
2023-11-01T23:03:54.643Z,3.47
2023-11-01T23:06:28.483Z,3.58
2023-11-01T23:09:01.162Z,3.42
2023-11-01T23:11:34.821Z,3.30
2023-11-01T23:14:10.539Z,3.75
2023-11-01T23:16:43.756Z,3.37
2023-11-01T23:19:16.142Z,3.27
2023-11-01T23:21:48.980Z,3.67
2023-11-01T23:24:21.547Z,3.65
2023-11-01T23:27:03.299Z,3.33
2023-11-01T23:29:39.066Z,3.98
2023-11-01T23:32:19.028Z,3.20
2023-11-01T23:34:53.248Z,3.30
2023-11-01T23:37:37.663Z,3.70
2023-11-01T23:40:12.106Z,3.75
2023-11-01T23:45:39.677Z,3.52
2023-11-01T23:48:13.634Z,3.37
2023-11-01T23:50:45.928Z,3.67
2023-11-01T23:53:25.953Z,3.80
2023-11-01T23:55:58.534Z,3.50
2023-11-01T23:58:35.523Z,3.70
